Disclaimer

Please do not use the information listed here in-flight or in-navigation, as they are not provided to us by the airports but are provided by volunteers, so they might be outdated.

Search


Regions


Airport information page

No radio frequency information is available.

Airport informations:
Latitude: 06° 11' 22.80" N
Longitude: 100° 23' 53.46" E
Elevation: 15 feet - 5 meters
Operating hours: Remarks
Operating agency: Military-civil joint use airport
Timezone: UTC+8
Fuel: Unknown fuel type or whether there is any fuel.

Runway information:
04/22 - 9005 x 151 feet< - >2745 x 46 meters

Recent METARs:
WMKA 180900Z VRB03KT 8000 FEW017CB BKN280 33/27 Q1008
WMKA 180900Z VRB03KT 8000 FEW017CB BKN280 33/27 Q1008
WMKA 181000Z 28005KT 240V350 7000 FEW020 BKN280 32/27 Q1008

Airport on the map: